createdAt,value
2022-10-05T00:00:27.445Z,3.63
2022-10-05T00:02:57.621Z,3.33
2022-10-05T00:05:34.123Z,3.17
2022-10-05T00:08:14.122Z,3.30
2022-10-05T00:10:44.540Z,3.03
2022-10-05T00:13:18.096Z,3.00
2022-10-05T00:15:49.671Z,3.67
2022-10-05T00:18:22.018Z,3.70
2022-10-05T00:20:52.597Z,2.70
2022-10-05T00:23:25.800Z,3.07
2022-10-05T00:25:53.797Z,2.90
2022-10-05T00:28:27.761Z,2.80
2022-10-05T00:30:59.359Z,3.07
2022-10-05T00:33:29.787Z,3.00
2022-10-05T00:38:27.134Z,3.07
2022-10-05T00:41:06.499Z,3.50
2022-10-05T00:43:52.398Z,2.87
2022-10-05T00:46:27.182Z,3.17
2022-10-05T00:49:06.801Z,3.00
2022-10-05T00:51:37.357Z,3.00
2022-10-05T00:57:09.998Z,2.80
2022-10-05T00:59:52.801Z,3.00
2022-10-05T01:02:32.991Z,3.30
2022-10-05T01:05:15.525Z,2.90
2022-10-05T01:07:51.789Z,3.05
2022-10-05T01:10:30.156Z,2.67
2022-10-05T01:13:08.146Z,3.00
2022-10-05T01:15:49.863Z,3.13
2022-10-05T01:18:25.913Z,3.00
2022-10-05T01:21:02.483Z,3.13
2022-10-05T01:24:00.449Z,3.30
2022-10-05T01:27:02.848Z,3.07
2022-10-05T01:29:41.655Z,3.00
2022-10-05T01:32:21.806Z,3.40
2022-10-05T01:34:58.750Z,4.00
2022-10-05T01:37:33.935Z,3.53
2022-10-05T01:40:10.181Z,2.97
2022-10-05T01:42:53.524Z,3.10
2022-10-05T01:45:35.407Z,3.80
2022-10-05T01:48:10.260Z,4.07
2022-10-05T01:50:48.676Z,3.80
2022-10-05T01:53:29.096Z,3.70
2022-10-05T01:56:11.248Z,3.53
2022-10-05T01:58:47.508Z,3.40
2022-10-05T02:01:28.804Z,3.47
2022-10-05T02:04:06.162Z,3.80
2022-10-05T02:06:41.633Z,3.63
2022-10-05T02:09:18.205Z,4.17
2022-10-05T02:11:51.491Z,3.70
2022-10-05T02:14:25.911Z,3.77
2022-10-05T02:16:59.118Z,3.43
2022-10-05T02:19:36.113Z,3.97
2022-10-05T02:22:08.258Z,3.80
2022-10-05T02:24:42.557Z,3.80
2022-10-05T02:27:14.922Z,3.90
2022-10-05T02:29:50.213Z,3.10
2022-10-05T02:32:26.177Z,3.70
2022-10-05T02:34:55.997Z,3.90
2022-10-05T02:37:34.659Z,3.65
2022-10-05T02:40:16.245Z,3.63
2022-10-05T02:42:55.914Z,4.00
2022-10-05T02:45:32.868Z,3.45
2022-10-05T02:48:12.316Z,3.43
2022-10-05T02:50:51.790Z,3.43
2022-10-05T02:53:27.160Z,4.03
2022-10-05T02:56:09.740Z,3.40
2022-10-05T02:58:46.970Z,3.50
2022-10-05T03:01:27.851Z,3.13
2022-10-05T03:04:08.572Z,3.40
2022-10-05T03:06:45.933Z,3.10
2022-10-05T03:09:18.679Z,3.30
2022-10-05T03:11:56.115Z,3.67
2022-10-05T03:14:34.266Z,3.47
2022-10-05T03:17:15.675Z,3.50
2022-10-05T03:20:02.918Z,3.93
2022-10-05T03:22:43.515Z,2.87
2022-10-05T03:25:27.294Z,3.60
2022-10-05T03:28:04.398Z,2.90
2022-10-05T03:30:40.118Z,3.13
2022-10-05T03:33:17.121Z,3.70
2022-10-05T03:35:54.557Z,3.43
2022-10-05T03:38:34.212Z,3.33
2022-10-05T03:41:11.227Z,3.67
2022-10-05T03:43:59.748Z,3.30
2022-10-05T03:46:40.745Z,3.47
2022-10-05T03:49:18.772Z,3.07
2022-10-05T03:51:52.451Z,3.57
2022-10-05T03:54:27.273Z,3.07
2022-10-05T03:56:59.131Z,3.10
2022-10-05T03:59:32.826Z,3.40
2022-10-05T04:02:06.031Z,3.50
2022-10-05T04:04:42.732Z,3.30
2022-10-05T04:07:31.636Z,3.37
2022-10-05T04:10:03.575Z,3.37
2022-10-05T04:12:37.067Z,3.10
2022-10-05T04:15:18.969Z,4.03
2022-10-05T04:17:52.917Z,3.50
2022-10-05T04:20:27.868Z,3.30
2022-10-05T04:23:07.580Z,2.90
2022-10-05T04:25:43.956Z,3.60
2022-10-05T04:28:19.256Z,3.67
2022-10-05T04:30:51.698Z,3.33
2022-10-05T04:33:22.792Z,3.57
2022-10-05T04:36:06.938Z,3.93
2022-10-05T04:38:58.171Z,3.90
2022-10-05T04:41:42.442Z,4.00
2022-10-05T04:44:27.037Z,4.40
2022-10-05T04:47:10.338Z,3.60
2022-10-05T04:50:01.859Z,3.60
2022-10-05T04:52:39.497Z,3.17
2022-10-05T04:55:20.249Z,3.53
2022-10-05T04:57:59.763Z,3.50
2022-10-05T05:00:31.112Z,3.40
2022-10-05T05:03:15.964Z,3.60
2022-10-05T05:06:15.950Z,4.30
2022-10-05T05:09:01.823Z,3.70
2022-10-05T05:11:38.911Z,3.57
2022-10-05T05:14:30.944Z,3.57
2022-10-05T05:17:14.591Z,3.40
2022-10-05T05:19:57.000Z,3.57
2022-10-05T05:22:32.949Z,3.13
2022-10-05T05:25:18.262Z,3.33
2022-10-05T05:27:50.064Z,3.17
2022-10-05T05:30:22.869Z,3.27
2022-10-05T05:33:19.160Z,3.40
2022-10-05T05:36:09.108Z,3.10
2022-10-05T05:38:42.664Z,3.50
2022-10-05T05:41:19.984Z,3.37
2022-10-05T05:44:03.196Z,3.70
2022-10-05T05:47:02.389Z,3.43
2022-10-05T05:49:36.841Z,3.33
2022-10-05T05:52:17.489Z,3.57
2022-10-05T05:54:52.415Z,3.57
2022-10-05T05:57:28.654Z,3.60
2022-10-05T06:00:06.288Z,3.43
2022-10-05T06:02:41.812Z,3.23
2022-10-05T06:05:29.972Z,3.43
2022-10-05T06:07:59.854Z,3.60
2022-10-05T06:10:35.849Z,3.70
2022-10-05T06:13:13.662Z,3.73
2022-10-05T06:15:50.066Z,4.20
2022-10-05T06:18:21.894Z,3.30
2022-10-05T06:20:57.240Z,3.47
2022-10-05T06:23:36.969Z,3.87
2022-10-05T06:26:22.043Z,3.67
2022-10-05T06:28:57.516Z,3.67
2022-10-05T06:31:37.263Z,3.67
2022-10-05T06:34:18.637Z,4.20
2022-10-05T06:36:51.308Z,3.80
2022-10-05T06:39:34.927Z,3.77
2022-10-05T06:42:26.205Z,3.73
2022-10-05T06:45:05.288Z,3.97
2022-10-05T06:47:43.396Z,3.70
2022-10-05T06:50:22.599Z,3.30
2022-10-05T06:53:04.637Z,3.50
2022-10-05T06:55:47.807Z,3.43
2022-10-05T06:58:28.413Z,3.90
2022-10-05T07:01:07.351Z,3.70
2022-10-05T07:03:48.990Z,3.60
2022-10-05T07:06:29.046Z,4.07
2022-10-05T07:09:18.278Z,3.88
2022-10-05T07:12:05.410Z,4.20
2022-10-05T07:15:00.157Z,3.40
2022-10-05T07:17:48.125Z,3.60
2022-10-05T07:20:25.436Z,4.50
2022-10-05T07:23:33.421Z,3.93
2022-10-05T07:26:09.615Z,4.17
2022-10-05T07:28:57.076Z,3.87
2022-10-05T07:31:41.694Z,4.50
2022-10-05T07:34:24.524Z,4.30
2022-10-05T07:37:19.554Z,4.53
2022-10-05T07:40:03.694Z,4.30
2022-10-05T07:42:51.841Z,4.20
2022-10-05T07:45:34.881Z,4.03
2022-10-05T07:48:18.325Z,4.47
2022-10-05T07:51:02.631Z,3.77
2022-10-05T07:53:39.287Z,4.00
2022-10-05T07:56:20.352Z,3.97
2022-10-05T07:58:51.914Z,4.33
2022-10-05T08:01:28.860Z,4.40
2022-10-05T08:04:03.729Z,3.70
2022-10-05T08:06:53.009Z,3.87
2022-10-05T08:09:35.453Z,4.07
2022-10-05T08:12:20.068Z,4.37
2022-10-05T08:14:54.909Z,3.57
2022-10-05T08:17:36.060Z,4.10
2022-10-05T08:20:20.606Z,3.90
2022-10-05T08:22:59.986Z,4.40
2022-10-05T08:25:44.118Z,3.65
2022-10-05T08:28:24.942Z,3.43
2022-10-05T08:31:01.542Z,3.50
2022-10-05T08:33:45.281Z,3.57
2022-10-05T08:36:20.283Z,3.43
2022-10-05T08:38:58.365Z,4.00
2022-10-05T08:42:11.822Z,3.23
2022-10-05T08:45:25.770Z,3.00
2022-10-05T08:48:18.504Z,2.63
2022-10-05T08:51:22.339Z,3.20
2022-10-05T08:54:39.941Z,3.10
2022-10-05T08:57:44.594Z,2.70
2022-10-05T09:00:21.162Z,2.50
2022-10-05T09:03:25.437Z,3.70
2022-10-05T09:06:26.919Z,3.13
2022-10-05T09:09:22.992Z,2.50
2022-10-05T09:12:11.184Z,3.13
2022-10-05T09:15:25.420Z,3.38
2022-10-05T09:18:49.139Z,2.65
2022-10-05T09:21:40.845Z,2.55
2022-10-05T09:24:25.938Z,2.80
2022-10-05T09:27:09.360Z,2.38
2022-10-05T09:30:18.835Z,2.20
2022-10-05T09:33:22.056Z,3.03
2022-10-05T09:36:20.495Z,2.30
2022-10-05T09:40:05.330Z,2.30
2022-10-05T09:43:03.251Z,2.10
2022-10-05T09:45:49.242Z,2.60
2022-10-05T09:49:01.335Z,2.25
2022-10-05T09:52:11.567Z,2.10
2022-10-05T09:55:17.464Z,2.20
2022-10-05T09:58:35.804Z,1.95
2022-10-05T10:01:37.235Z,2.53
2022-10-05T10:04:30.725Z,2.50
2022-10-05T10:11:19.152Z,2.15
2022-10-05T10:14:47.312Z,2.22
2022-10-05T10:18:17.420Z,2.03
2022-10-05T10:21:28.840Z,1.85
2022-10-05T10:24:42.530Z,1.85
2022-10-05T10:28:02.247Z,1.83
2022-10-05T10:31:27.175Z,1.67
2022-10-05T10:39:01.976Z,1.45
2022-10-05T10:42:27.602Z,1.60
2022-10-05T10:45:35.284Z,1.70
2022-10-05T10:48:48.918Z,1.60
2022-10-05T10:52:37.598Z,1.63
2022-10-05T10:56:04.920Z,1.55
2022-10-05T11:03:19.828Z,1.50
2022-10-05T11:10:39.443Z,1.50
2022-10-05T11:14:10.366Z,1.65
2022-10-05T11:32:58.723Z,1.48
2022-10-05T11:40:01.681Z,0.98
2022-10-05T11:48:09.640Z,1.10
2022-10-05T11:55:10.754Z,1.08
2022-10-05T12:01:27.762Z,1.15
2022-10-05T12:04:06.773Z,1.00
2022-10-05T12:07:29.308Z,1.13
2022-10-05T12:10:30.849Z,1.15
2022-10-05T12:16:40.727Z,1.17
2022-10-05T12:20:01.868Z,1.00
2022-10-05T12:22:45.601Z,1.00
2022-10-05T12:25:39.563Z,1.08
2022-10-05T12:29:17.101Z,0.88
2022-10-05T12:36:26.346Z,1.00
2022-10-05T12:42:43.351Z,0.90
2022-10-05T12:45:51.611Z,1.00
2022-10-05T12:49:22.220Z,0.90
2022-10-05T12:52:08.867Z,0.90
2022-10-05T13:06:55.769Z,0.90
2022-10-05T13:27:24.545Z,1.27
2022-10-05T13:30:12.685Z,1.30
2022-10-05T13:38:05.300Z,1.60
2022-10-05T13:48:31.717Z,1.95
2022-10-05T13:51:22.484Z,1.70
2022-10-05T13:57:57.810Z,1.75
2022-10-05T14:26:44.696Z,2.17
2022-10-05T14:33:33.740Z,2.35
2022-10-05T14:36:25.858Z,2.30
2022-10-05T14:39:15.720Z,2.35
2022-10-05T14:41:56.085Z,2.65
2022-10-05T14:44:38.419Z,2.65
2022-10-05T15:03:16.523Z,2.28
2022-10-05T15:05:50.006Z,1.90
2022-10-05T15:08:36.312Z,1.73
2022-10-05T15:11:09.098Z,1.92
2022-10-05T15:13:42.797Z,2.10
2022-10-05T15:16:19.323Z,2.03
2022-10-05T15:18:58.975Z,2.08
2022-10-05T15:21:42.332Z,2.10
2022-10-05T16:00:19.348Z,1.30
2022-10-05T16:02:53.803Z,1.58
2022-10-05T16:12:19.013Z,0.50
2022-10-05T16:23:01.381Z,2.10
2022-10-05T16:25:36.612Z,2.42
2022-10-05T16:28:17.192Z,2.20
2022-10-05T16:30:58.728Z,2.70
2022-10-05T16:36:36.171Z,2.60
2022-10-05T16:39:16.372Z,2.00
2022-10-05T16:41:53.656Z,2.22
2022-10-05T16:44:35.823Z,2.10
2022-10-05T16:47:27.660Z,2.00
2022-10-05T16:50:05.069Z,2.20
2022-10-05T16:52:47.118Z,2.50
2022-10-05T16:55:25.899Z,2.92
2022-10-05T16:57:56.935Z,2.70
2022-10-05T17:00:29.943Z,2.38
2022-10-05T17:03:28.422Z,2.08
2022-10-05T17:06:25.996Z,2.40
2022-10-05T17:09:36.583Z,1.98
2022-10-05T17:15:01.766Z,2.28
2022-10-05T17:17:45.309Z,2.20
2022-10-05T17:20:30.258Z,2.38
2022-10-05T17:23:18.422Z,2.33
2022-10-05T17:25:53.811Z,2.05
2022-10-05T17:28:38.568Z,1.90
2022-10-05T17:31:16.526Z,2.13
2022-10-05T17:34:26.369Z,2.30
2022-10-05T17:36:59.799Z,2.28
2022-10-05T17:39:47.194Z,2.17
2022-10-05T17:42:49.318Z,1.80
2022-10-05T17:45:56.570Z,2.20
2022-10-05T17:49:02.393Z,1.83
2022-10-05T17:52:15.986Z,2.45
2022-10-05T17:55:30.130Z,1.75
2022-10-05T17:58:03.077Z,1.90
2022-10-05T18:00:43.833Z,2.10
2022-10-05T18:03:39.700Z,2.70
2022-10-05T18:06:39.585Z,2.10
2022-10-05T18:09:23.095Z,2.13
2022-10-05T18:12:25.481Z,2.20
2022-10-05T18:15:24.842Z,2.38
2022-10-05T18:17:57.230Z,2.00
2022-10-05T18:20:34.802Z,1.98
2022-10-05T18:23:35.438Z,1.92
2022-10-05T18:26:29.033Z,2.00
2022-10-05T18:29:14.717Z,2.25
2022-10-05T18:31:51.801Z,2.15
2022-10-05T18:34:31.901Z,2.17
2022-10-05T18:37:17.767Z,1.95
2022-10-05T18:40:14.800Z,2.10
2022-10-05T18:42:54.150Z,1.77
2022-10-05T18:45:29.311Z,2.10
2022-10-05T18:48:11.823Z,1.98
2022-10-05T18:50:47.958Z,1.92
2022-10-05T18:53:32.412Z,2.20
2022-10-05T18:56:15.244Z,1.90
2022-10-05T18:58:57.505Z,1.75
2022-10-05T19:01:57.811Z,1.70
2022-10-05T19:04:36.878Z,1.80
2022-10-05T19:07:16.880Z,2.10
2022-10-05T19:10:07.366Z,2.15
2022-10-05T19:15:22.419Z,2.17
2022-10-05T19:18:14.626Z,2.05
2022-10-05T19:20:53.683Z,1.70
2022-10-05T19:23:46.141Z,1.95
2022-10-05T19:26:21.988Z,1.95
2022-10-05T19:29:03.525Z,1.63
2022-10-05T19:31:43.395Z,1.50
2022-10-05T19:34:48.548Z,1.77
2022-10-05T19:37:26.603Z,1.70
2022-10-05T19:39:59.856Z,1.55
2022-10-05T19:42:50.779Z,1.58
2022-10-05T19:45:26.544Z,1.67
2022-10-05T19:48:11.121Z,1.35
2022-10-05T19:50:39.989Z,1.60
2022-10-05T19:53:25.986Z,1.40
2022-10-05T19:55:55.485Z,1.73
2022-10-05T19:58:30.433Z,1.93
2022-10-05T20:01:02.159Z,1.48
2022-10-05T20:03:35.160Z,1.60
2022-10-05T20:06:04.495Z,1.70
2022-10-05T20:08:44.242Z,1.58
2022-10-05T20:11:14.179Z,1.80
2022-10-05T20:13:44.302Z,1.88
2022-10-05T20:16:59.174Z,1.80
2022-10-05T20:19:53.355Z,1.55
2022-10-05T20:22:26.326Z,1.55
2022-10-05T20:24:55.552Z,1.70
2022-10-05T20:27:38.192Z,1.60
2022-10-05T20:30:07.286Z,1.50
2022-10-05T20:32:36.726Z,1.60
2022-10-05T20:35:08.938Z,1.50
2022-10-05T20:37:38.972Z,1.70
2022-10-05T20:40:07.848Z,1.60
2022-10-05T20:42:37.796Z,1.60
2022-10-05T20:45:08.328Z,1.40
2022-10-05T20:47:38.284Z,1.65
2022-10-05T20:50:09.133Z,1.50
2022-10-05T20:52:38.143Z,1.40
2022-10-05T20:55:06.387Z,1.23
2022-10-05T20:57:34.363Z,1.30
2022-10-05T21:00:02.237Z,1.13
2022-10-05T21:02:30.000Z,1.23
2022-10-05T21:05:01.140Z,1.33
2022-10-05T21:07:31.189Z,1.30
2022-10-05T21:09:59.088Z,1.30
2022-10-05T21:12:28.727Z,1.45
2022-10-05T21:14:56.573Z,1.40
2022-10-05T21:17:24.399Z,1.40
2022-10-05T21:19:54.540Z,1.50
2022-10-05T21:22:25.750Z,1.27
2022-10-05T21:24:55.077Z,1.30
2022-10-05T21:27:24.677Z,1.23
2022-10-05T21:29:52.565Z,1.40
2022-10-05T21:32:20.304Z,1.25
2022-10-05T21:34:50.126Z,1.30
2022-10-05T21:37:20.094Z,1.40
2022-10-05T21:39:49.252Z,1.35
2022-10-05T21:42:21.656Z,1.50
2022-10-05T21:44:50.641Z,1.42
2022-10-05T21:47:18.440Z,1.27
2022-10-05T21:49:50.382Z,1.38
2022-10-05T21:52:18.184Z,1.17
2022-10-05T21:54:54.315Z,1.27
2022-10-05T21:57:24.229Z,1.30
2022-10-05T21:59:52.103Z,1.27
2022-10-05T22:02:21.799Z,1.13
2022-10-05T22:05:05.064Z,1.30
2022-10-05T22:07:34.826Z,1.13
2022-10-05T22:10:06.950Z,1.38
2022-10-05T22:12:34.782Z,1.50
2022-10-05T22:15:05.011Z,1.13
2022-10-05T22:17:36.184Z,1.10
2022-10-05T22:20:04.750Z,1.13
2022-10-05T22:22:35.045Z,1.13
2022-10-05T22:25:06.864Z,1.33
2022-10-05T22:27:38.976Z,1.10
2022-10-05T22:30:08.391Z,1.33
2022-10-05T22:32:36.204Z,1.30
2022-10-05T22:35:11.481Z,1.20
2022-10-05T22:37:39.852Z,1.42
2022-10-05T22:40:13.604Z,1.30
2022-10-05T22:42:41.798Z,1.45
2022-10-05T22:45:10.136Z,1.30
2022-10-05T22:47:40.325Z,1.73
2022-10-05T22:50:09.455Z,1.50
2022-10-05T22:52:37.252Z,1.38
2022-10-05T22:55:11.340Z,1.45
2022-10-05T22:57:42.113Z,1.60
2022-10-05T23:00:14.108Z,1.60
2022-10-05T23:02:45.255Z,1.55
2022-10-05T23:05:13.662Z,1.50
2022-10-05T23:07:45.085Z,1.30
2022-10-05T23:10:18.989Z,1.40
2022-10-05T23:13:00.489Z,1.40
2022-10-05T23:15:28.941Z,1.60
2022-10-05T23:18:01.043Z,1.30
2022-10-05T23:20:29.150Z,1.27
2022-10-05T23:22:56.917Z,1.40
2022-10-05T23:25:29.987Z,1.40
2022-10-05T23:27:57.812Z,1.30
2022-10-05T23:30:25.862Z,1.50
2022-10-05T23:32:58.092Z,1.38
2022-10-05T23:35:26.062Z,1.42
2022-10-05T23:37:53.841Z,1.30
2022-10-05T23:40:25.684Z,1.40
2022-10-05T23:42:57.065Z,1.30
2022-10-05T23:45:24.949Z,1.50
2022-10-05T23:47:54.664Z,1.33
2022-10-05T23:50:26.977Z,1.20
2022-10-05T23:52:54.796Z,1.10
2022-10-05T23:55:24.393Z,1.30
2022-10-05T23:57:57.867Z,1.30
